createdAt,value
2018-11-22T12:17:57.119Z,1.40
2018-11-22T12:20:25.176Z,1.50
2018-11-22T12:22:55.032Z,1.50
2018-11-22T12:25:25.317Z,1.40
2018-11-22T12:27:54.113Z,1.40
2018-11-22T12:30:23.483Z,1.40
2018-11-22T12:32:57.135Z,1.50
2018-11-22T12:35:30.723Z,1.60
2018-11-22T12:38:04.588Z,1.60
2018-11-22T12:40:32.603Z,1.40
2018-11-22T12:43:00.756Z,1.40
2018-11-22T12:45:30.575Z,1.40
2018-11-22T12:47:58.631Z,1.40
2018-11-22T12:50:26.656Z,1.40
2018-11-22T12:52:54.723Z,1.30
2018-11-22T12:55:22.737Z,1.40
2018-11-22T12:57:50.762Z,1.50
2018-11-22T13:00:19.140Z,1.60
2018-11-22T13:02:47.195Z,1.60
2018-11-22T13:05:16.475Z,1.70
2018-11-22T13:07:44.726Z,1.70
2018-11-22T13:10:13.868Z,1.50
2018-11-22T13:12:49.054Z,1.50
2018-11-22T13:15:18.339Z,1.40
2018-11-22T13:17:46.689Z,1.50
2018-11-22T13:20:16.486Z,1.60
2018-11-22T13:22:44.547Z,1.50
2018-11-22T13:25:16.139Z,1.50
2018-11-22T13:27:44.171Z,1.50
2018-11-22T13:30:16.589Z,1.60
2018-11-22T13:32:45.475Z,1.60
2018-11-22T13:35:14.482Z,1.60
2018-11-22T13:37:43.940Z,1.40
2018-11-22T13:40:12.392Z,1.60
2018-11-22T13:42:41.710Z,1.60
2018-11-22T13:45:11.826Z,1.60
2018-11-22T13:47:41.206Z,1.60
2018-11-22T13:50:12.931Z,1.50
2018-11-22T13:52:41.027Z,1.60
2018-11-22T13:55:09.047Z,1.70
2018-11-22T13:57:37.788Z,1.60
2018-11-22T14:00:11.880Z,1.50
2018-11-22T14:02:40.096Z,1.50
2018-11-22T14:05:11.664Z,1.50
2018-11-22T14:07:36.575Z,1.40
2018-11-22T14:10:06.772Z,1.30
2018-11-22T14:12:34.779Z,1.40
2018-11-22T14:15:03.191Z,1.20
2018-11-22T14:17:31.480Z,1.30
2018-11-22T14:19:59.508Z,1.20
2018-11-22T14:22:27.513Z,1.30
2018-11-22T14:24:55.663Z,1.30
2018-11-22T14:27:23.687Z,1.20
2018-11-22T14:29:51.711Z,1.30
2018-11-22T14:32:19.760Z,1.20
2018-11-22T14:34:47.803Z,1.20
2018-11-22T14:37:15.806Z,1.20
2018-11-22T14:39:43.891Z,1.20
2018-11-22T14:42:11.907Z,1.20
2018-11-22T14:44:39.991Z,1.20
2018-11-22T14:47:08.068Z,1.20
2018-11-22T14:49:36.147Z,1.20
2018-11-22T14:52:04.199Z,1.20
2018-11-22T14:54:32.264Z,1.20
2018-11-22T14:57:00.327Z,1.10
2018-11-22T14:59:28.343Z,1.00
2018-11-22T15:01:56.491Z,1.10
2018-11-22T15:04:24.513Z,1.20
2018-11-22T15:06:52.523Z,1.20
2018-11-22T15:09:20.575Z,1.10
2018-11-22T15:11:49.294Z,1.00
2018-11-22T15:14:17.340Z,1.10
2018-11-22T15:16:45.391Z,1.20
2018-11-22T15:19:13.783Z,1.10
2018-11-22T15:21:41.805Z,1.00
2018-11-22T15:24:09.822Z,1.00
2018-11-22T15:26:37.935Z,1.10
2018-11-22T15:29:08.223Z,1.10
2018-11-22T15:31:36.279Z,1.00
2018-11-22T15:34:04.490Z,0.90
2018-11-22T15:36:32.551Z,0.90
2018-11-22T15:39:00.591Z,0.90
2018-11-22T15:41:28.790Z,1.00
2018-11-22T15:43:56.863Z,1.00
2018-11-22T15:46:24.907Z,1.00
2018-11-22T15:48:53.039Z,1.00
2018-11-22T15:51:21.239Z,1.10
2018-11-22T15:53:49.243Z,1.00
2018-11-22T15:56:17.251Z,1.20
2018-11-22T15:58:45.323Z,1.20
2018-11-22T16:01:13.335Z,1.30
2018-11-22T16:03:41.356Z,1.30
2018-11-22T16:06:09.432Z,1.30
2018-11-22T16:08:37.512Z,1.20
2018-11-22T16:11:06.126Z,1.20
2018-11-22T16:13:34.146Z,1.10
2018-11-22T16:16:02.282Z,1.10
2018-11-22T16:18:30.296Z,1.10
2018-11-22T16:20:58.303Z,1.00
2018-11-22T16:23:26.427Z,1.20
2018-11-22T16:25:54.759Z,1.30
2018-11-22T16:28:22.807Z,1.40
2018-11-22T16:30:50.888Z,1.30
2018-11-22T16:33:19.076Z,1.30
2018-11-22T16:35:47.104Z,1.30
2018-11-22T16:38:15.112Z,1.10
2018-11-22T16:40:43.186Z,0.90
2018-11-22T16:43:11.196Z,0.90
2018-11-22T16:45:39.500Z,1.00
2018-11-22T16:48:09.330Z,1.10
2018-11-22T16:50:38.327Z,1.30
2018-11-22T16:53:06.347Z,1.40
2018-11-22T16:55:34.411Z,1.20
2018-11-22T16:58:02.983Z,1.20
2018-11-22T17:00:33.327Z,1.20
2018-11-22T17:03:02.776Z,1.20
2018-11-22T17:05:30.963Z,1.30
2018-11-22T17:07:59.518Z,1.30
2018-11-22T17:10:28.667Z,1.40
2018-11-22T17:12:57.943Z,1.30
2018-11-22T17:15:27.568Z,1.30
2018-11-22T17:17:56.360Z,1.20
2018-11-22T17:20:25.001Z,1.30
2018-11-22T17:22:53.563Z,1.30
2018-11-22T17:25:23.797Z,1.30
2018-11-22T17:27:55.499Z,1.40
2018-11-22T17:30:25.598Z,1.40
2018-11-22T17:32:53.608Z,1.30
2018-11-22T17:35:23.808Z,1.10
2018-11-22T17:37:52.547Z,1.30
2018-11-22T17:40:22.067Z,1.40
2018-11-22T17:42:50.276Z,1.40
2018-11-22T17:45:21.520Z,1.60
2018-11-22T17:47:49.607Z,1.60
2018-11-22T17:50:17.636Z,1.60
2018-11-22T17:52:45.891Z,1.70
2018-11-22T17:55:17.371Z,1.50
2018-11-22T17:57:45.451Z,1.50
2018-11-22T18:00:19.813Z,1.50
2018-11-22T18:02:49.931Z,1.40
2018-11-22T18:05:18.825Z,1.40
2018-11-22T18:07:48.960Z,1.40
2018-11-22T18:10:19.267Z,1.30
2018-11-22T18:12:48.987Z,1.20
2018-11-22T18:15:18.909Z,1.20
2018-11-22T18:17:47.919Z,1.20
2018-11-22T18:20:18.200Z,1.10
2018-11-22T18:22:46.994Z,1.10
2018-11-22T18:25:16.419Z,1.10
2018-11-22T18:27:45.547Z,1.20
2018-11-22T18:30:16.527Z,1.20
2018-11-22T18:32:45.835Z,1.30
2018-11-22T18:35:14.402Z,1.40
2018-11-22T18:37:42.567Z,1.30
2018-11-22T18:40:12.610Z,1.20
2018-11-22T18:42:40.659Z,1.20
2018-11-22T18:45:10.460Z,1.20
2018-11-22T18:47:38.590Z,1.20
2018-11-22T18:50:15.595Z,1.00
2018-11-22T18:52:42.131Z,1.10
2018-11-22T18:55:10.611Z,1.20
2018-11-22T18:57:45.793Z,1.30
2018-11-22T19:00:18.155Z,1.20
2018-11-22T19:02:46.276Z,1.30
2018-11-22T19:05:14.942Z,1.40
2018-11-22T19:07:44.264Z,1.10
2018-11-22T19:10:16.503Z,1.20
2018-11-22T19:12:45.451Z,1.10
2018-11-22T19:15:14.771Z,1.00
2018-11-22T19:17:42.907Z,1.00
2018-11-22T19:20:17.383Z,1.20
2018-11-22T19:22:46.706Z,1.10
2018-11-22T19:25:14.886Z,1.10
2018-11-22T19:27:43.388Z,1.00
2018-11-22T19:30:17.800Z,1.20
2018-11-22T19:32:47.086Z,1.20
2018-11-22T19:35:16.338Z,1.30
2018-11-22T19:37:44.940Z,1.40
2018-11-22T19:40:15.707Z,1.50
2018-11-22T19:42:44.687Z,1.40
2018-11-22T19:45:14.478Z,1.40
2018-11-22T19:47:42.619Z,1.40
2018-11-22T19:50:12.952Z,1.40
2018-11-22T19:52:41.527Z,1.30
2018-11-22T19:55:12.063Z,1.30
2018-11-22T19:57:40.144Z,1.20
2018-11-22T20:00:10.059Z,1.20
2018-11-22T20:02:38.779Z,1.30
2018-11-22T20:05:07.683Z,1.40
2018-11-22T20:07:35.891Z,1.40
2018-11-22T20:10:07.895Z,1.40
2018-11-22T20:12:35.959Z,1.50
2018-11-22T20:15:04.244Z,1.60
2018-11-22T20:17:32.263Z,1.60
2018-11-22T20:20:00.423Z,1.60
2018-11-22T20:22:28.494Z,1.50
2018-11-22T20:24:56.508Z,1.50
2018-11-22T20:27:24.662Z,1.50
2018-11-22T20:29:52.720Z,1.60
2018-11-22T20:32:20.808Z,1.70
2018-11-22T20:34:48.919Z,1.70
2018-11-22T20:37:16.956Z,1.60
2018-11-22T20:39:44.975Z,1.60
2018-11-22T20:42:13.023Z,1.50
2018-11-22T20:44:41.039Z,1.50
2018-11-22T20:47:09.135Z,1.60
2018-11-22T20:49:37.168Z,1.60
2018-11-22T20:52:05.515Z,1.60
2018-11-22T20:54:33.644Z,1.70
2018-11-22T20:57:01.652Z,1.70
2018-11-22T20:59:29.823Z,1.70
2018-11-22T21:01:57.948Z,1.60
2018-11-22T21:04:32.543Z,1.50
2018-11-22T21:07:00.655Z,1.50
2018-11-22T21:09:28.760Z,1.40
2018-11-22T21:11:57.019Z,1.30
2018-11-22T21:14:25.034Z,1.40
2018-11-22T21:16:53.141Z,1.50
2018-11-22T21:19:21.156Z,1.50
2018-11-22T21:21:49.176Z,1.30
2018-11-22T21:24:17.258Z,1.30
2018-11-22T21:26:45.373Z,1.10
2018-11-22T21:29:13.416Z,1.20
2018-11-22T21:31:41.592Z,1.20
2018-11-22T21:34:09.643Z,1.20
2018-11-22T21:36:37.808Z,1.30
2018-11-22T21:39:08.582Z,1.30
2018-11-22T21:41:36.622Z,1.40
2018-11-22T21:44:04.663Z,1.40
2018-11-22T21:46:33.570Z,1.40
2018-11-22T21:49:02.071Z,1.50
2018-11-22T21:51:30.354Z,1.50
2018-11-22T21:53:58.907Z,1.40
2018-11-22T21:56:26.924Z,1.40
2018-11-22T21:58:54.988Z,1.40
2018-11-22T22:01:23.167Z,1.40
2018-11-22T22:03:51.268Z,1.30
2018-11-22T22:06:19.283Z,1.30
2018-11-22T22:08:47.572Z,1.30
2018-11-22T22:11:15.575Z,1.30
2018-11-22T22:13:43.588Z,1.40
2018-11-22T22:16:11.784Z,1.40
2018-11-22T22:18:39.908Z,1.50
2018-11-22T22:21:07.923Z,1.50
2018-11-22T22:23:36.075Z,1.40
2018-11-22T22:26:04.087Z,1.40
2018-11-22T22:28:32.107Z,1.20
2018-11-22T22:31:00.271Z,1.20
2018-11-22T22:33:28.383Z,1.20
2018-11-22T22:35:56.399Z,1.30
2018-11-22T22:38:24.415Z,1.30
2018-11-22T22:40:52.483Z,1.30
2018-11-22T22:43:20.543Z,1.40
2018-11-22T22:45:48.612Z,1.30
2018-11-22T22:48:16.680Z,1.10
2018-11-22T22:50:44.712Z,1.20
2018-11-22T22:53:12.753Z,1.30
2018-11-22T22:55:40.807Z,1.30
2018-11-22T22:58:08.897Z,1.20
2018-11-22T23:00:41.675Z,1.10
2018-11-22T23:03:09.727Z,1.00
2018-11-22T23:05:38.211Z,1.00
2018-11-22T23:08:06.371Z,1.00
2018-11-22T23:10:34.398Z,1.10
2018-11-22T23:13:02.472Z,1.10
2018-11-22T23:15:32.236Z,1.10
2018-11-22T23:18:00.242Z,1.00
2018-11-22T23:20:29.533Z,1.00
2018-11-22T23:22:57.607Z,1.00
2018-11-22T23:25:26.469Z,1.10
2018-11-22T23:27:54.555Z,1.10
2018-11-22T23:30:27.511Z,1.00
2018-11-22T23:32:56.976Z,1.00
2018-11-22T23:35:25.159Z,1.00
2018-11-22T23:37:53.755Z,1.10
2018-11-22T23:40:22.964Z,1.30
2018-11-22T23:42:51.012Z,1.40
2018-11-22T23:45:20.400Z,1.40
2018-11-22T23:47:48.959Z,1.40
2018-11-22T23:50:19.347Z,1.40
2018-11-22T23:52:48.498Z,1.40
2018-11-22T23:55:16.591Z,1.40
2018-11-22T23:57:44.750Z,1.40
